Time;durP1;ratioP1;P1;durP2;ratioP2;P2;SDS_P1;SDS_P2;PMS_P1;PMS_P2;Temp;Humidity;BMP_temperature;BMP_pressure;BME280_temperature;BME280_humidity;BME280_pressure;Samples;Min_cycle;Max_cycle;Signal;HPM_P1;HPM_P2
2022/10/05 00:01:27;;;;;;;;;;;15.80;99.90;;;;;;4934509;29;20246;-76
2022/10/05 00:04:14;;;;;;;;;;;15.70;99.90;;;;;;4936517;29;19911;-70
2022/10/05 00:06:42;;;;;;;;;;;15.80;99.90;;;;;;4938861;29;20137;-71
2022/10/05 00:09:19;;;;;;;;;;;15.80;99.90;;;;;;4938739;29;20362;-73
2022/10/05 00:11:48;;;;;;;;;;;15.70;99.90;;;;;;4938838;29;19917;-72
2022/10/05 00:14:21;;;;;;;;;;;15.70;99.90;;;;;;4938398;29;20002;-69
2022/10/05 00:16:48;;;;;;;;;;;15.70;99.90;;;;;;4938562;29;19911;-70
2022/10/05 00:19:18;;;;;;;;;;;15.70;99.90;;;;;;4938429;29;19918;-71
2022/10/05 00:21:45;;;;;;;;;;;15.70;99.90;;;;;;4938678;29;19911;-70
2022/10/05 00:24:13;;;;;;;;;;;15.70;99.90;;;;;;4938329;29;19962;-72
2022/10/05 00:26:40;;;;;;;;;;;15.60;99.90;;;;;;4938476;29;19915;-69
2022/10/05 00:29:16;;;;;;;;;;;15.50;99.90;;;;;;4937520;29;19929;-69
2022/10/05 00:31:42;;;;;;;;;;;15.40;99.90;;;;;;4937833;29;19926;-69
2022/10/05 00:34:09;;;;;;;;;;;15.30;99.90;;;;;;4937937;29;20271;-68
2022/10/05 00:36:37;;;;;;;;;;;15.30;99.90;;;;;;4938119;29;20233;-69
2022/10/05 00:39:04;;;;;;;;;;;15.30;99.90;;;;;;4936860;29;19915;-68
2022/10/05 00:41:55;;;;;;;;;;;15.30;99.90;;;;;;4937851;29;20250;-69
2022/10/05 00:44:37;;;;;;;;;;;15.20;99.90;;;;;;4937919;29;19915;-71
2022/10/05 00:47:03;;;;;;;;;;;15.30;99.90;;;;;;4937879;29;19973;-69
2022/10/05 00:49:33;;;;;;;;;;;15.30;99.90;;;;;;4938040;29;19970;-67
2022/10/05 00:52:19;;;;;;;;;;;15.30;99.90;;;;;;4938056;29;19919;-68
2022/10/05 00:54:59;;;;;;;;;;;15.30;99.90;;;;;;4937098;29;20342;-71
2022/10/05 00:57:35;;;;;;;;;;;15.20;99.90;;;;;;4938161;29;19926;-70
2022/10/05 01:00:11;;;;;;;;;;;15.10;99.90;;;;;;4938231;29;19911;-73
2022/10/05 01:02:37;;;;;;;;;;;15.20;99.90;;;;;;4937684;29;19974;-69
2022/10/05 01:05:14;;;;;;;;;;;15.30;99.90;;;;;;4937394;29;19911;-68
2022/10/05 01:07:47;;;;;;;;;;;15.30;99.90;;;;;;4937724;29;19918;-69
2022/10/05 01:10:26;;;;;;;;;;;15.40;99.90;;;;;;4937167;29;20358;-69
2022/10/05 01:12:55;;;;;;;;;;;15.30;99.90;;;;;;4937998;29;19911;-70
2022/10/05 01:15:26;;;;;;;;;;;15.30;99.90;;;;;;4936762;29;19915;-70
2022/10/05 01:18:07;;;;;;;;;;;15.30;99.90;;;;;;4937524;29;19998;-70
2022/10/05 01:20:56;;;;;;;;;;;15.20;99.90;;;;;;4938022;29;19911;-71
2022/10/05 01:23:33;;;;;;;;;;;15.20;99.90;;;;;;4941298;29;20525;-69
2022/10/05 01:26:18;;;;;;;;;;;15.20;99.90;;;;;;4940085;29;19915;-69
2022/10/05 01:28:55;;;;;;;;;;;15.30;99.90;;;;;;4937444;29;19934;-70
2022/10/05 01:31:27;;;;;;;;;;;15.30;99.90;;;;;;4935740;29;20345;-70
2022/10/05 01:34:07;;;;;;;;;;;15.30;99.90;;;;;;4937121;29;19915;-70
2022/10/05 01:37:08;;;;;;;;;;;15.10;99.90;;;;;;4937846;29;20005;-69
2022/10/05 01:39:35;;;;;;;;;;;14.90;99.90;;;;;;4879413;29;19976;-71
2022/10/05 01:42:11;;;;;;;;;;;14.80;99.90;;;;;;4925836;29;20293;-71
2022/10/05 01:44:45;;;;;;;;;;;14.60;99.90;;;;;;4938822;29;19927;-70
2022/10/05 01:47:30;;;;;;;;;;;14.50;99.90;;;;;;4937966;29;19915;-68
2022/10/05 01:50:03;;;;;;;;;;;14.50;99.90;;;;;;4937723;29;19978;-68
2022/10/05 01:52:35;;;;;;;;;;;14.50;99.90;;;;;;4937330;29;19942;-68
2022/10/05 01:55:18;;;;;;;;;;;14.50;99.90;;;;;;4918690;29;20359;-70
2022/10/05 01:58:03;;;;;;;;;;;14.50;99.90;;;;;;4930246;29;19914;-69
2022/10/05 02:00:32;;;;;;;;;;;14.70;99.90;;;;;;4936794;29;19994;-68
2022/10/05 02:03:11;;;;;;;;;;;14.70;99.90;;;;;;4936283;29;19934;-69
2022/10/05 02:05:51;;;;;;;;;;;14.80;99.90;;;;;;4936915;29;19994;-68
2022/10/05 02:08:30;;;;;;;;;;;14.80;99.90;;;;;;4936553;29;19915;-69
2022/10/05 02:11:11;;;;;;;;;;;14.90;99.90;;;;;;4936396;29;19911;-69
2022/10/05 02:13:44;;;;;;;;;;;14.90;99.90;;;;;;4936150;29;20006;-71
2022/10/05 02:16:22;;;;;;;;;;;14.90;99.90;;;;;;4936449;29;19915;-68
2022/10/05 02:18:56;;;;;;;;;;;14.90;99.90;;;;;;4936618;29;20017;-68
2022/10/05 02:21:23;;;;;;;;;;;14.90;99.90;;;;;;4936204;29;19918;-69
2022/10/05 02:23:51;;;;;;;;;;;15.00;99.90;;;;;;4921796;29;19970;-70
2022/10/05 02:26:18;;;;;;;;;;;14.90;99.90;;;;;;4915766;29;19926;-71
2022/10/05 02:28:51;;;;;;;;;;;14.90;99.90;;;;;;4916945;29;19923;-67
2022/10/05 02:31:49;;;;;;;;;;;15.00;99.90;;;;;;4916656;29;19911;-68
2022/10/05 02:34:21;;;;;;;;;;;14.80;99.90;;;;;;4894806;29;20006;-68
2022/10/05 02:36:51;;;;;;;;;;;14.80;99.90;;;;;;4917053;29;19915;-70
2022/10/05 02:39:28;;;;;;;;;;;14.90;99.90;;;;;;4919454;29;19917;-71
2022/10/05 02:41:58;;;;;;;;;;;14.90;99.90;;;;;;4935891;29;19910;-72
2022/10/05 02:44:30;;;;;;;;;;;14.90;99.90;;;;;;4935701;29;20397;-69
2022/10/05 02:47:03;;;;;;;;;;;14.90;99.90;;;;;;4935552;29;20009;-71
2022/10/05 02:49:38;;;;;;;;;;;14.90;99.90;;;;;;4935354;29;20378;-69
2022/10/05 02:52:05;;;;;;;;;;;14.90;99.90;;;;;;4936092;29;19918;-70
2022/10/05 02:54:44;;;;;;;;;;;14.90;99.90;;;;;;4934924;29;20259;-68
2022/10/05 02:57:23;;;;;;;;;;;14.90;99.90;;;;;;4936433;29;19923;-68
2022/10/05 03:00:07;;;;;;;;;;;14.90;99.90;;;;;;4945292;29;19918;-71
2022/10/05 03:03:00;;;;;;;;;;;14.80;99.90;;;;;;4934199;29;19927;-69
2022/10/05 03:05:33;;;;;;;;;;;14.80;99.90;;;;;;4931004;29;19911;-69
2022/10/05 03:08:35;;;;;;;;;;;14.90;99.90;;;;;;4933856;29;19915;-68
2022/10/05 03:11:14;;;;;;;;;;;14.90;99.90;;;;;;4894028;29;20291;-69
2022/10/05 03:13:59;;;;;;;;;;;15.00;99.90;;;;;;4917041;29;20514;-68
2022/10/05 03:16:35;;;;;;;;;;;14.90;99.90;;;;;;4935071;29;20415;-69
2022/10/05 03:19:20;;;;;;;;;;;14.90;99.90;;;;;;4934790;29;19915;-70
2022/10/05 03:21:46;;;;;;;;;;;14.90;99.90;;;;;;4934441;29;19911;-71
2022/10/05 03:24:16;;;;;;;;;;;14.90;99.90;;;;;;4934571;29;19917;-69
2022/10/05 03:26:46;;;;;;;;;;;14.90;99.90;;;;;;4934678;29;19910;-73
2022/10/05 03:29:18;;;;;;;;;;;15.00;99.90;;;;;;4933942;29;20370;-70
2022/10/05 03:32:05;;;;;;;;;;;15.00;99.90;;;;;;4934454;29;19914;-70
2022/10/05 03:34:40;;;;;;;;;;;15.00;99.90;;;;;;4933788;29;20298;-69
2022/10/05 03:37:19;;;;;;;;;;;14.90;99.90;;;;;;4934359;29;20289;-70
2022/10/05 03:39:57;;;;;;;;;;;15.00;99.90;;;;;;4934361;29;19947;-72
2022/10/05 03:42:39;;;;;;;;;;;14.90;99.90;;;;;;4935077;29;19910;-73
2022/10/05 03:45:21;;;;;;;;;;;14.90;99.90;;;;;;4934502;29;19921;-72
2022/10/05 03:48:10;;;;;;;;;;;14.80;99.90;;;;;;4934642;29;19911;-70
2022/10/05 03:50:54;;;;;;;;;;;14.80;99.90;;;;;;4929985;29;19930;-72
2022/10/05 03:53:53;;;;;;;;;;;14.80;99.90;;;;;;4933732;29;19919;-69
2022/10/05 03:56:40;;;;;;;;;;;14.70;99.90;;;;;;4909932;29;20059;-71
2022/10/05 03:59:14;;;;;;;;;;;14.80;99.90;;;;;;4932888;29;20433;-73
2022/10/05 04:01:46;;;;;;;;;;;14.70;99.90;;;;;;4936221;29;19963;-69
2022/10/05 04:04:19;;;;;;;;;;;14.80;99.90;;;;;;4934631;29;20204;-70
2022/10/05 04:06:47;;;;;;;;;;;14.90;99.90;;;;;;4935228;29;19914;-72
2022/10/05 04:09:35;;;;;;;;;;;15.00;99.90;;;;;;4934742;29;20378;-69
2022/10/05 04:12:18;;;;;;;;;;;14.90;99.90;;;;;;4934852;29;19918;-69
2022/10/05 04:14:52;;;;;;;;;;;14.80;99.90;;;;;;4934796;29;19950;-71
2022/10/05 04:17:38;;;;;;;;;;;14.80;99.90;;;;;;4934614;29;19938;-69
2022/10/05 04:20:14;;;;;;;;;;;14.80;99.90;;;;;;4932108;29;19919;-69
2022/10/05 04:22:45;;;;;;;;;;;14.70;99.90;;;;;;4934750;29;19957;-69
2022/10/05 04:25:22;;;;;;;;;;;14.60;99.90;;;;;;4934631;29;20303;-69
2022/10/05 04:28:03;;;;;;;;;;;14.50;99.90;;;;;;4935029;29;19918;-71
2022/10/05 04:30:32;;;;;;;;;;;14.50;99.90;;;;;;4934759;29;20070;-71
2022/10/05 04:32:59;;;;;;;;;;;14.60;99.90;;;;;;4950482;29;19923;-70
2022/10/05 04:35:25;;;;;;;;;;;14.60;99.90;;;;;;4937055;29;19921;-72
2022/10/05 04:38:10;;;;;;;;;;;14.50;99.90;;;;;;4935481;29;19938;-70
2022/10/05 04:40:41;;;;;;;;;;;14.50;99.90;;;;;;4935409;29;19911;-73
2022/10/05 04:43:18;;;;;;;;;;;14.50;99.90;;;;;;4935029;29;19997;-72
2022/10/05 04:45:55;;;;;;;;;;;14.40;99.90;;;;;;4934468;29;19946;-70
2022/10/05 04:48:29;;;;;;;;;;;14.50;99.90;;;;;;4934654;29;19926;-72
2022/10/05 04:51:04;;;;;;;;;;;14.40;99.90;;;;;;4936164;29;19918;-70
2022/10/05 04:53:35;;;;;;;;;;;14.50;99.90;;;;;;4938012;29;20343;-69
2022/10/05 04:56:05;;;;;;;;;;;14.50;99.90;;;;;;4938004;29;20440;-71
2022/10/05 04:58:37;;;;;;;;;;;14.50;99.90;;;;;;4937527;29;19943;-70
2022/10/05 05:01:26;;;;;;;;;;;14.60;99.90;;;;;;4937704;29;20009;-71
2022/10/05 05:04:21;;;;;;;;;;;14.60;99.90;;;;;;4937921;29;20386;-70
2022/10/05 05:06:48;;;;;;;;;;;14.60;99.90;;;;;;4928437;29;19957;-72
2022/10/05 05:09:51;;;;;;;;;;;14.50;99.90;;;;;;4940266;29;19922;-71
2022/10/05 05:12:27;;;;;;;;;;;14.50;99.90;;;;;;4899475;29;20375;-70
2022/10/05 05:15:00;;;;;;;;;;;14.50;99.90;;;;;;4898676;29;20425;-72
2022/10/05 05:17:32;;;;;;;;;;;14.60;99.90;;;;;;4896929;29;20015;-72
2022/10/05 05:20:17;;;;;;;;;;;14.60;99.90;;;;;;4911219;29;20002;-72
2022/10/05 05:22:47;;;;;;;;;;;14.60;99.90;;;;;;4940385;29;19915;-71
2022/10/05 05:25:16;;;;;;;;;;;14.60;99.90;;;;;;4941104;29;19918;-73
2022/10/05 05:27:53;;;;;;;;;;;14.60;99.90;;;;;;4941482;29;20006;-73
2022/10/05 05:30:26;;;;;;;;;;;14.50;99.90;;;;;;4942662;29;19929;-73
2022/10/05 05:32:52;;;;;;;;;;;14.50;99.90;;;;;;4938147;29;20009;-74
2022/10/05 05:35:39;;;;;;;;;;;14.50;99.90;;;;;;4940755;29;19911;-72
2022/10/05 05:38:14;;;;;;;;;;;14.50;99.90;;;;;;4941679;29;19958;-73
2022/10/05 05:40:53;;;;;;;;;;;14.50;99.90;;;;;;4938197;29;20301;-71
2022/10/05 05:43:37;;;;;;;;;;;14.50;99.90;;;;;;4936929;29;20014;-71
2022/10/05 05:46:21;;;;;;;;;;;14.50;99.90;;;;;;4937011;29;20466;-71
2022/10/05 05:48:48;;;;;;;;;;;14.50;99.90;;;;;;4937249;29;19993;-73
2022/10/05 05:51:18;;;;;;;;;;;14.40;99.90;;;;;;4935637;29;19915;-72
2022/10/05 05:53:47;;;;;;;;;;;14.30;99.90;;;;;;4934869;29;19918;-73
2022/10/05 05:56:16;;;;;;;;;;;14.30;99.90;;;;;;4935422;29;19915;-71
2022/10/05 05:58:51;;;;;;;;;;;14.30;99.90;;;;;;4934862;29;19969;-73
2022/10/05 06:01:23;;;;;;;;;;;14.40;99.90;;;;;;4934440;29;19926;-71
2022/10/05 06:04:08;;;;;;;;;;;14.40;99.90;;;;;;4935944;29;19911;-73
2022/10/05 06:06:37;;;;;;;;;;;14.40;99.90;;;;;;4952649;29;19911;-72
2022/10/05 06:09:12;;;;;;;;;;;14.30;99.90;;;;;;4940636;29;19915;-73
2022/10/05 06:11:42;;;;;;;;;;;14.20;99.90;;;;;;4934861;29;19919;-73
2022/10/05 06:14:22;;;;;;;;;;;14.20;99.90;;;;;;4934272;29;20575;-75
2022/10/05 06:16:54;;;;;;;;;;;14.20;99.90;;;;;;4935694;29;19966;-72
2022/10/05 06:19:22;;;;;;;;;;;14.30;99.90;;;;;;4934436;29;20429;-70
2022/10/05 06:22:07;;;;;;;;;;;14.30;99.90;;;;;;4935212;29;19942;-71
2022/10/05 06:24:52;;;;;;;;;;;14.30;99.90;;;;;;4935220;29;20327;-72
2022/10/05 06:27:38;;;;;;;;;;;14.30;99.90;;;;;;4935649;29;20341;-72
2022/10/05 06:30:07;;;;;;;;;;;14.30;99.90;;;;;;4934935;29;19927;-71
2022/10/05 06:32:53;;;;;;;;;;;14.40;99.90;;;;;;4933987;29;20294;-72
2022/10/05 06:35:39;;;;;;;;;;;14.40;99.90;;;;;;4904991;29;19915;-72
2022/10/05 06:38:14;;;;;;;;;;;14.30;99.90;;;;;;4935081;29;19918;-72
2022/10/05 06:40:59;;;;;;;;;;;14.20;99.90;;;;;;4934771;29;20370;-72
2022/10/05 06:43:41;;;;;;;;;;;14.30;99.90;;;;;;4934151;29;19915;-73
2022/10/05 06:46:07;;;;;;;;;;;14.30;99.90;;;;;;4934246;29;19970;-71
2022/10/05 06:48:37;;;;;;;;;;;14.30;99.90;;;;;;4934171;29;19941;-72
2022/10/05 06:51:17;;;;;;;;;;;14.30;99.90;;;;;;4934010;29;19918;-72
2022/10/05 06:53:55;;;;;;;;;;;14.20;99.90;;;;;;4933952;29;19915;-71
2022/10/05 06:56:33;;;;;;;;;;;14.30;99.90;;;;;;4933549;29;19914;-73
2022/10/05 06:58:59;;;;;;;;;;;14.30;99.90;;;;;;4934170;29;19919;-73
2022/10/05 07:01:50;;;;;;;;;;;14.30;99.90;;;;;;4933551;29;20343;-71
2022/10/05 07:04:35;;;;;;;;;;;14.30;99.90;;;;;;4933665;29;19931;-74
2022/10/05 07:07:21;;;;;;;;;;;14.30;99.90;;;;;;4934134;29;19917;-70
2022/10/05 07:10:20;;;;;;;;;;;14.30;99.90;;;;;;4932994;29;19931;-73
2022/10/05 07:12:47;;;;;;;;;;;14.30;99.90;;;;;;4910985;29;19969;-72
2022/10/05 07:15:19;;;;;;;;;;;14.30;99.90;;;;;;4933906;29;19910;-73
2022/10/05 07:18:04;;;;;;;;;;;14.30;99.90;;;;;;4933721;29;19938;-73
2022/10/05 07:20:46;;;;;;;;;;;14.30;99.90;;;;;;4933737;29;19914;-71
2022/10/05 07:23:22;;;;;;;;;;;14.30;99.90;;;;;;4933137;29;19922;-71
2022/10/05 07:26:09;;;;;;;;;;;14.30;99.90;;;;;;4933622;29;19965;-73
2022/10/05 07:29:12;;;;;;;;;;;14.30;99.90;;;;;;4933647;29;19911;-72
2022/10/05 07:31:47;;;;;;;;;;;14.10;99.90;;;;;;4893020;29;20433;-73
2022/10/05 07:34:26;;;;;;;;;;;14.10;99.90;;;;;;4927833;29;19915;-74
2022/10/05 07:39:55;;;;;;;;;;;14.10;99.90;;;;;;4949030;29;19906;-70
2022/10/05 07:42:22;;;;;;;;;;;14.20;99.90;;;;;;4932315;29;20393;-75
2022/10/05 07:44:52;;;;;;;;;;;14.20;99.90;;;;;;4927226;29;19914;-73
2022/10/05 07:47:20;;;;;;;;;;;14.10;99.90;;;;;;4927204;29;20851;-73
2022/10/05 07:49:50;;;;;;;;;;;14.10;99.90;;;;;;4926704;29;19929;-72
2022/10/05 07:52:23;;;;;;;;;;;14.10;99.90;;;;;;4926674;29;19954;-73
2022/10/05 07:55:01;;;;;;;;;;;14.10;99.90;;;;;;4926880;29;19966;-73
2022/10/05 07:57:31;;;;;;;;;;;14.10;99.90;;;;;;4926918;29;20316;-74
2022/10/05 07:59:57;;;;;;;;;;;14.00;99.90;;;;;;4926740;29;19922;-72
2022/10/05 08:02:47;;;;;;;;;;;13.90;99.90;;;;;;4925784;29;20589;-72
2022/10/05 08:05:26;;;;;;;;;;;13.90;99.90;;;;;;4921191;29;20017;-71
2022/10/05 08:07:57;;;;;;;;;;;13.90;99.90;;;;;;4926975;29;19915;-73
2022/10/05 08:10:24;;;;;;;;;;;13.90;99.90;;;;;;4926544;29;19923;-69
2022/10/05 08:12:53;;;;;;;;;;;13.90;99.90;;;;;;4926164;29;19942;-74
2022/10/05 08:15:22;;;;;;;;;;;13.90;99.90;;;;;;4925970;29;19918;-74
2022/10/05 08:17:56;;;;;;;;;;;13.90;99.90;;;;;;4926512;29;19973;-71
2022/10/05 08:20:35;;;;;;;;;;;13.90;99.90;;;;;;4926742;29;19915;-73
2022/10/05 08:23:08;;;;;;;;;;;13.90;99.90;;;;;;4926159;29;19914;-69
2022/10/05 08:25:46;;;;;;;;;;;14.00;99.90;;;;;;4928143;29;20309;-74
2022/10/05 08:28:15;;;;;;;;;;;14.00;99.90;;;;;;4930020;29;19922;-72
2022/10/05 08:30:53;;;;;;;;;;;14.00;99.90;;;;;;4931847;29;19922;-72
2022/10/05 08:33:22;;;;;;;;;;;14.00;99.90;;;;;;4937822;29;20370;-74
2022/10/05 08:35:54;;;;;;;;;;;14.00;99.90;;;;;;4938387;29;19922;-73
2022/10/05 08:38:28;;;;;;;;;;;14.00;99.90;;;;;;4938490;29;20062;-73
2022/10/05 08:40:55;;;;;;;;;;;14.00;99.90;;;;;;4938246;29;19911;-72
2022/10/05 08:43:48;;;;;;;;;;;14.00;99.90;;;;;;4938071;29;19914;-73
2022/10/05 08:46:30;;;;;;;;;;;14.00;99.90;;;;;;4923281;29;20338;-70
2022/10/05 08:49:14;;;;;;;;;;;14.00;99.90;;;;;;4938162;29;19966;-72
2022/10/05 08:51:47;;;;;;;;;;;14.10;99.90;;;;;;4938248;29;19941;-71
2022/10/05 08:54:16;;;;;;;;;;;14.00;99.90;;;;;;4937698;29;19911;-72
2022/10/05 08:56:46;;;;;;;;;;;14.00;99.90;;;;;;4938211;29;19958;-72
2022/10/05 08:59:31;;;;;;;;;;;14.00;99.90;;;;;;4937789;29;19915;-72
2022/10/05 09:02:10;;;;;;;;;;;13.90;99.90;;;;;;4937781;29;19927;-73
2022/10/05 09:04:52;;;;;;;;;;;13.90;99.90;;;;;;4937717;29;19919;-72
2022/10/05 09:07:33;;;;;;;;;;;13.90;99.90;;;;;;4937921;29;19925;-74
2022/10/05 09:10:06;;;;;;;;;;;13.90;99.90;;;;;;4937790;29;19929;-74
2022/10/05 09:12:39;;;;;;;;;;;14.00;99.90;;;;;;4937606;29;20381;-72
2022/10/05 09:15:08;;;;;;;;;;;14.00;99.90;;;;;;4936157;29;19970;-69
2022/10/05 09:18:01;;;;;;;;;;;14.10;99.90;;;;;;4937775;29;20374;-70
2022/10/05 09:20:34;;;;;;;;;;;14.10;99.90;;;;;;4937752;29;19954;-70
2022/10/05 09:23:33;;;;;;;;;;;14.00;99.90;;;;;;4937446;29;19911;-69
2022/10/05 09:26:18;;;;;;;;;;;13.90;99.90;;;;;;4915763;29;19919;-71
2022/10/05 09:29:17;;;;;;;;;;;13.90;99.90;;;;;;4937312;29;19915;-69
2022/10/05 09:32:05;;;;;;;;;;;13.80;99.90;;;;;;4915578;29;19958;-72
2022/10/05 09:34:32;;;;;;;;;;;13.90;99.90;;;;;;4917118;29;19911;-72
2022/10/05 09:36:59;;;;;;;;;;;13.80;99.90;;;;;;4936805;29;19915;-71
2022/10/05 09:40:01;;;;;;;;;;;13.90;99.90;;;;;;4937107;29;19914;-73
2022/10/05 09:42:48;;;;;;;;;;;13.90;99.90;;;;;;4896802;29;19916;-70
2022/10/05 09:45:34;;;;;;;;;;;13.90;99.90;;;;;;4934688;29;20006;-72
2022/10/05 09:48:16;;;;;;;;;;;13.80;99.90;;;;;;4937583;29;19914;-71
2022/10/05 09:50:51;;;;;;;;;;;13.80;99.90;;;;;;4941081;29;19994;-69
2022/10/05 09:53:39;;;;;;;;;;;13.80;99.90;;;;;;4935157;29;19939;-70
2022/10/05 09:56:33;;;;;;;;;;;13.80;99.90;;;;;;4929502;29;19949;-68
2022/10/05 09:59:06;;;;;;;;;;;13.90;99.90;;;;;;4929383;29;19919;-70
2022/10/05 10:01:50;;;;;;;;;;;13.90;99.90;;;;;;4928666;29;19938;-72
2022/10/05 10:04:36;;;;;;;;;;;14.00;99.90;;;;;;4928198;29;20413;-68
2022/10/05 10:07:21;;;;;;;;;;;14.00;99.90;;;;;;4928683;29;19990;-72
2022/10/05 10:10:06;;;;;;;;;;;14.10;99.90;;;;;;4928894;29;20439;-72
2022/10/05 10:12:45;;;;;;;;;;;14.10;99.90;;;;;;4928319;29;20723;-72
2022/10/05 10:15:27;;;;;;;;;;;14.10;99.90;;;;;;4928179;29;19915;-73
2022/10/05 10:18:16;;;;;;;;;;;14.10;99.90;;;;;;4928083;29;19915;-73
2022/10/05 10:20:46;;;;;;;;;;;14.10;99.90;;;;;;4923605;29;19966;-71
2022/10/05 10:23:48;;;;;;;;;;;14.10;99.90;;;;;;4927994;29;19915;-72
2022/10/05 10:26:15;;;;;;;;;;;14.10;99.90;;;;;;4887725;29;20311;-74
2022/10/05 10:28:57;;;;;;;;;;;14.10;99.90;;;;;;4919714;29;19974;-73
2022/10/05 10:31:27;;;;;;;;;;;14.10;99.90;;;;;;4927896;29;19918;-73
2022/10/05 10:34:05;;;;;;;;;;;14.10;99.90;;;;;;4927771;29;20239;-73
2022/10/05 10:36:37;;;;;;;;;;;14.10;99.90;;;;;;4928280;29;20006;-73
2022/10/05 10:39:06;;;;;;;;;;;14.00;99.90;;;;;;4928198;29;20001;-72
2022/10/05 10:41:33;;;;;;;;;;;14.00;99.90;;;;;;4928273;29;19972;-72
2022/10/05 10:44:02;;;;;;;;;;;14.10;99.90;;;;;;4927421;29;20007;-72
2022/10/05 10:46:29;;;;;;;;;;;14.10;99.90;;;;;;4927775;29;19915;-73
2022/10/05 10:48:56;;;;;;;;;;;14.10;99.90;;;;;;4926849;29;19926;-72
2022/10/05 10:51:31;;;;;;;;;;;14.10;99.90;;;;;;4927862;29;19915;-75
2022/10/05 10:54:02;;;;;;;;;;;14.10;99.90;;;;;;4927938;29;20377;-71
2022/10/05 10:56:44;;;;;;;;;;;14.20;99.90;;;;;;4927689;29;20460;-73
2022/10/05 10:59:29;;;;;;;;;;;14.20;99.90;;;;;;4927668;29;19925;-74
2022/10/05 11:02:22;;;;;;;;;;;14.20;99.90;;;;;;4927627;29;19930;-72
2022/10/05 11:05:03;;;;;;;;;;;14.20;99.90;;;;;;4912083;29;19919;-71
2022/10/05 11:07:39;;;;;;;;;;;14.30;99.90;;;;;;4927500;29;19961;-74
2022/10/05 11:10:24;;;;;;;;;;;14.30;99.90;;;;;;4927594;29;19922;-73
2022/10/05 11:13:09;;;;;;;;;;;14.30;99.90;;;;;;4927257;29;19921;-71
2022/10/05 11:15:59;;;;;;;;;;;14.20;99.90;;;;;;4927571;29;19915;-74
2022/10/05 11:18:26;;;;;;;;;;;14.20;99.90;;;;;;4928312;29;19937;-72
2022/10/05 11:21:03;;;;;;;;;;;14.20;99.90;;;;;;4928086;29;19915;-71
2022/10/05 11:23:47;;;;;;;;;;;14.20;99.90;;;;;;4930094;29;19914;-74
2022/10/05 11:26:14;;;;;;;;;;;14.30;99.90;;;;;;4938113;29;19985;-71
2022/10/05 11:28:53;;;;;;;;;;;14.30;99.90;;;;;;4936445;29;19922;-70
2022/10/05 11:31:43;;;;;;;;;;;14.30;99.90;;;;;;4932989;29;19915;-71
2022/10/05 11:34:28;;;;;;;;;;;14.30;99.90;;;;;;4932275;29;19914;-73
2022/10/05 11:37:13;;;;;;;;;;;14.30;99.90;;;;;;4931260;29;19985;-75
2022/10/05 11:39:44;;;;;;;;;;;14.30;99.90;;;;;;4927573;29;19915;-72
2022/10/05 11:42:11;;;;;;;;;;;14.30;99.90;;;;;;4927256;29;19922;-72
2022/10/05 11:44:56;;;;;;;;;;;14.30;99.90;;;;;;4927507;29;19918;-71
2022/10/05 11:47:26;;;;;;;;;;;14.30;99.90;;;;;;4927855;29;19919;-75
2022/10/05 11:49:55;;;;;;;;;;;14.20;99.90;;;;;;4929837;29;19923;-71
2022/10/05 11:53:00;;;;;;;;;;;14.30;99.90;;;;;;4928770;29;20445;-70
2022/10/05 11:55:26;;;;;;;;;;;14.40;99.90;;;;;;4887332;29;19922;-73
2022/10/05 11:57:53;;;;;;;;;;;14.30;99.90;;;;;;4887436;29;20354;-73
2022/10/05 12:00:21;;;;;;;;;;;14.30;99.90;;;;;;4906639;29;19962;-69
2022/10/05 12:03:00;;;;;;;;;;;14.20;99.90;;;;;;4927686;29;19982;-70
2022/10/05 12:05:32;;;;;;;;;;;14.20;99.90;;;;;;4930093;29;19915;-73
2022/10/05 12:08:07;;;;;;;;;;;14.10;99.90;;;;;;4932527;29;20381;-71
2022/10/05 12:10:56;;;;;;;;;;;14.10;99.90;;;;;;4936114;29;19925;-74
2022/10/05 12:13:32;;;;;;;;;;;14.10;99.90;;;;;;4935196;29;19919;-74
2022/10/05 12:16:15;;;;;;;;;;;14.10;99.90;;;;;;4935557;29;19958;-73
2022/10/05 12:18:41;;;;;;;;;;;14.10;99.90;;;;;;4935406;29;20136;-74
2022/10/05 12:21:26;;;;;;;;;;;14.10;99.90;;;;;;4934841;29;20001;-72
2022/10/05 12:23:56;;;;;;;;;;;14.10;99.90;;;;;;4934414;29;19915;-74
2022/10/05 12:26:25;;;;;;;;;;;14.10;99.90;;;;;;4934782;29;20406;-73
2022/10/05 12:28:52;;;;;;;;;;;14.00;99.90;;;;;;4934665;29;19918;-74
2022/10/05 12:31:22;;;;;;;;;;;14.10;99.90;;;;;;4934552;29;19915;-74
2022/10/05 12:33:56;;;;;;;;;;;14.10;99.90;;;;;;4934487;29;19955;-74
2022/10/05 12:36:28;;;;;;;;;;;14.10;99.90;;;;;;4934822;29;20384;-75
2022/10/05 12:39:04;;;;;;;;;;;14.00;99.90;;;;;;4934683;29;20382;-72
2022/10/05 12:41:54;;;;;;;;;;;14.10;99.90;;;;;;4935429;29;19915;-73
2022/10/05 12:44:40;;;;;;;;;;;14.10;99.90;;;;;;4929170;29;19919;-73
2022/10/05 12:47:16;;;;;;;;;;;14.10;99.90;;;;;;4934634;29;19914;-73
2022/10/05 12:49:58;;;;;;;;;;;14.00;99.90;;;;;;4934400;29;19922;-73
2022/10/05 12:52:43;;;;;;;;;;;14.00;99.90;;;;;;4934281;29;19910;-72
2022/10/05 12:55:15;;;;;;;;;;;14.00;99.90;;;;;;4934330;29;19915;-72
2022/10/05 12:58:01;;;;;;;;;;;14.10;99.90;;;;;;4934421;29;19911;-71
2022/10/05 13:00:29;;;;;;;;;;;14.10;99.90;;;;;;4935459;29;19946;-68
2022/10/05 13:03:08;;;;;;;;;;;14.10;99.90;;;;;;4950468;29;19930;-68
2022/10/05 13:05:48;;;;;;;;;;;14.10;99.90;;;;;;4937578;29;19938;-72
2022/10/05 13:08:21;;;;;;;;;;;14.00;99.90;;;;;;4934658;29;19911;-70
2022/10/05 13:10:49;;;;;;;;;;;14.10;99.90;;;;;;4934619;29;19926;-72
2022/10/05 13:13:19;;;;;;;;;;;14.10;99.90;;;;;;4937239;29;20298;-71
2022/10/05 13:15:55;;;;;;;;;;;14.10;99.90;;;;;;4937872;29;20362;-73
2022/10/05 13:18:43;;;;;;;;;;;14.10;99.90;;;;;;4937763;29;19915;-70
2022/10/05 13:21:18;;;;;;;;;;;14.00;99.90;;;;;;4937556;29;20263;-70
2022/10/05 13:23:51;;;;;;;;;;;14.00;99.90;;;;;;4939299;29;19911;-73
2022/10/05 13:26:37;;;;;;;;;;;14.00;99.90;;;;;;4937621;29;19978;-71
2022/10/05 13:29:04;;;;;;;;;;;14.10;99.90;;;;;;4936884;29;20002;-73
2022/10/05 13:31:30;;;;;;;;;;;14.10;99.90;;;;;;4937516;29;19925;-73
2022/10/05 13:34:32;;;;;;;;;;;14.10;99.90;;;;;;4937120;29;19914;-73
2022/10/05 13:37:06;;;;;;;;;;;14.10;99.90;;;;;;4897363;29;19952;-72
2022/10/05 13:39:39;;;;;;;;;;;14.10;99.90;;;;;;4931267;29;20338;-71
2022/10/05 13:42:26;;;;;;;;;;;14.00;99.90;;;;;;4937092;29;19950;-73
2022/10/05 13:45:03;;;;;;;;;;;14.00;99.90;;;;;;4937281;29;20393;-72
2022/10/05 13:47:37;;;;;;;;;;;14.00;99.90;;;;;;4937203;29;20334;-73
2022/10/05 13:50:10;;;;;;;;;;;14.00;99.90;;;;;;4937076;29;19919;-75
2022/10/05 13:52:37;;;;;;;;;;;13.90;99.90;;;;;;4936806;29;19986;-73
2022/10/05 13:55:15;;;;;;;;;;;13.90;99.90;;;;;;4936861;29;19918;-73
2022/10/05 13:58:17;;;;;;;;;;;14.00;99.90;;;;;;4937061;29;19933;-74
2022/10/05 14:00:52;;;;;;;;;;;14.10;99.90;;;;;;4896733;29;19953;-73
2022/10/05 14:03:35;;;;;;;;;;;14.00;99.90;;;;;;4930346;29;20390;-73
2022/10/05 14:06:09;;;;;;;;;;;14.10;99.90;;;;;;4936796;29;19940;-72
2022/10/05 14:08:47;;;;;;;;;;;14.10;99.90;;;;;;4936430;29;19922;-72
2022/10/05 14:11:31;;;;;;;;;;;14.10;99.90;;;;;;4936365;29;19915;-71
2022/10/05 14:14:03;;;;;;;;;;;14.10;99.90;;;;;;4937911;29;19921;-72
2022/10/05 14:16:32;;;;;;;;;;;14.10;99.90;;;;;;4937396;29;20385;-72
2022/10/05 14:19:04;;;;;;;;;;;14.10;99.90;;;;;;4938445;29;19910;-72
2022/10/05 14:21:42;;;;;;;;;;;14.00;99.90;;;;;;4938334;29;19923;-73
2022/10/05 14:24:20;;;;;;;;;;;14.10;99.90;;;;;;4937596;29;20282;-74
2022/10/05 14:26:50;;;;;;;;;;;14.00;99.90;;;;;;4937175;29;19911;-73
2022/10/05 14:29:18;;;;;;;;;;;14.10;99.90;;;;;;4936527;29;19996;-73
2022/10/05 14:31:58;;;;;;;;;;;14.10;99.90;;;;;;4936729;29;20401;-73
2022/10/05 14:34:28;;;;;;;;;;;14.10;99.90;;;;;;4937415;29;19914;-75
2022/10/05 14:36:59;;;;;;;;;;;14.10;99.90;;;;;;4937021;29;20042;-72
2022/10/05 14:39:27;;;;;;;;;;;14.10;99.90;;;;;;4952861;29;19911;-74
2022/10/05 14:41:54;;;;;;;;;;;14.10;99.90;;;;;;4941050;29;20379;-72
2022/10/05 14:44:31;;;;;;;;;;;14.20;99.90;;;;;;4936795;29;19915;-73
2022/10/05 14:47:02;;;;;;;;;;;14.10;99.90;;;;;;4940143;29;19997;-72
2022/10/05 14:49:31;;;;;;;;;;;14.10;99.90;;;;;;4938782;29;19919;-74
2022/10/05 14:51:58;;;;;;;;;;;14.10;99.90;;;;;;4936227;29;19987;-74
2022/10/05 14:54:52;;;;;;;;;;;14.10;99.90;;;;;;4936332;29;19911;-74
2022/10/05 14:57:24;;;;;;;;;;;14.00;99.90;;;;;;4935440;29;19911;-72
2022/10/05 15:00:02;;;;;;;;;;;14.10;99.90;;;;;;4936944;29;19919;-74
2022/10/05 15:02:30;;;;;;;;;;;14.10;99.90;;;;;;4935547;29;19933;-73
2022/10/05 15:05:00;;;;;;;;;;;14.10;99.90;;;;;;4936260;29;20349;-74
2022/10/05 15:07:42;;;;;;;;;;;14.10;99.90;;;;;;4936190;29;20013;-73
2022/10/05 15:10:28;;;;;;;;;;;14.10;99.90;;;;;;4935747;29;19918;-73
2022/10/05 15:12:57;;;;;;;;;;;14.20;99.90;;;;;;4935306;29;20001;-72
2022/10/05 15:15:31;;;;;;;;;;;14.20;99.90;;;;;;4935282;29;19915;-74